sensor_id;sensor_type;location;lat;lon;timestamp;P1;durP1;ratioP1;P2;durP2;ratioP2
7316;SDS011;3699;51.462;6.696;2023-07-20T09:05:42;1.10;;;1.10;;
7316;SDS011;3699;51.462;6.696;2023-07-20T09:08:11;2.60;;;1.40;;
7316;SDS011;3699;51.462;6.696;2023-07-20T09:10:38;2.10;;;1.40;;
7316;SDS011;3699;51.462;6.696;2023-07-20T09:13:05;3.17;;;1.40;;
7316;SDS011;3699;51.462;6.696;2023-07-20T09:15:32;1.60;;;1.40;;
7316;SDS011;3699;51.462;6.696;2023-07-20T09:18:01;1.80;;;1.57;;
7316;SDS011;3699;51.462;6.696;2023-07-20T09:20:28;2.53;;;1.50;;
7316;SDS011;3699;51.462;6.696;2023-07-20T09:23:00;3.63;;;1.77;;
7316;SDS011;3699;51.462;6.696;2023-07-20T09:25:31;1.53;;;1.40;;
7316;SDS011;3699;51.462;6.696;2023-07-20T09:28:01;1.70;;;1.60;;
7316;SDS011;3699;51.462;6.696;2023-07-20T09:30:29;1.67;;;1.37;;
7316;SDS011;3699;51.462;6.696;2023-07-20T09:32:55;1.10;;;1.10;;
7316;SDS011;3699;51.462;6.696;2023-07-20T09:35:22;1.60;;;1.50;;
7316;SDS011;3699;51.462;6.696;2023-07-20T09:37:50;1.70;;;1.60;;
7316;SDS011;3699;51.462;6.696;2023-07-20T09:40:21;4.20;;;2.03;;
7316;SDS011;3699;51.462;6.696;2023-07-20T09:42:48;2.57;;;1.73;;
7316;SDS011;3699;51.462;6.696;2023-07-20T09:45:17;1.73;;;1.60;;
7316;SDS011;3699;51.462;6.696;2023-07-20T09:47:44;1.83;;;1.67;;
7316;SDS011;3699;51.462;6.696;2023-07-20T09:50:11;5.97;;;1.90;;
7316;SDS011;3699;51.462;6.696;2023-07-20T09:52:38;7.43;;;2.10;;
7316;SDS011;3699;51.462;6.696;2023-07-20T09:55:06;2.10;;;2.00;;
7316;SDS011;3699;51.462;6.696;2023-07-20T09:57:36;2.13;;;1.90;;
7316;SDS011;3699;51.462;6.696;2023-07-20T10:00:03;3.43;;;2.00;;
7316;SDS011;3699;51.462;6.696;2023-07-20T10:02:41;3.80;;;1.60;;
7316;SDS011;3699;51.462;6.696;2023-07-20T10:05:11;1.70;;;1.60;;
7316;SDS011;3699;51.462;6.696;2023-07-20T10:07:41;3.07;;;2.00;;
7316;SDS011;3699;51.462;6.696;2023-07-20T10:10:13;4.33;;;2.07;;
7316;SDS011;3699;51.462;6.696;2023-07-20T10:12:43;4.93;;;1.77;;
7316;SDS011;3699;51.462;6.696;2023-07-20T10:15:18;1.50;;;1.40;;
7316;SDS011;3699;51.462;6.696;2023-07-20T10:17:49;1.40;;;1.30;;
7316;SDS011;3699;51.462;6.696;2023-07-20T10:20:24;1.90;;;1.20;;
7316;SDS011;3699;51.462;6.696;2023-07-20T10:22:53;1.37;;;1.33;;
7316;SDS011;3699;51.462;6.696;2023-07-20T10:25:20;1.20;;;1.20;;
7316;SDS011;3699;51.462;6.696;2023-07-20T10:27:49;2.23;;;1.40;;
7316;SDS011;3699;51.462;6.696;2023-07-20T10:30:16;1.40;;;1.40;;
7316;SDS011;3699;51.462;6.696;2023-07-20T10:32:44;5.47;;;1.50;;
7316;SDS011;3699;51.462;6.696;2023-07-20T10:35:12;1.40;;;1.40;;
7316;SDS011;3699;51.462;6.696;2023-07-20T10:37:46;1.50;;;1.40;;
7316;SDS011;3699;51.462;6.696;2023-07-20T10:40:27;1.33;;;1.23;;
7316;SDS011;3699;51.462;6.696;2023-07-20T10:43:01;1.67;;;1.57;;
7316;SDS011;3699;51.462;6.696;2023-07-20T10:45:36;1.60;;;1.50;;
7316;SDS011;3699;51.462;6.696;2023-07-20T10:48:12;3.10;;;1.33;;
7316;SDS011;3699;51.462;6.696;2023-07-20T10:50:41;1.83;;;1.63;;
7316;SDS011;3699;51.462;6.696;2023-07-20T10:53:11;4.40;;;1.93;;
7316;SDS011;3699;51.462;6.696;2023-07-20T10:55:40;2.27;;;1.63;;
7316;SDS011;3699;51.462;6.696;2023-07-20T10:58:10;2.40;;;1.60;;
7316;SDS011;3699;51.462;6.696;2023-07-20T11:00:54;1.10;;;1.10;;
7316;SDS011;3699;51.462;6.696;2023-07-20T11:03:26;1.37;;;1.20;;
7316;SDS011;3699;51.462;6.696;2023-07-20T11:05:54;2.23;;;1.57;;
7316;SDS011;3699;51.462;6.696;2023-07-20T11:08:38;1.47;;;1.37;;
7316;SDS011;3699;51.462;6.696;2023-07-20T11:11:23;1.03;;;1.03;;
7316;SDS011;3699;51.462;6.696;2023-07-20T11:13:56;1.20;;;1.20;;
7316;SDS011;3699;51.462;6.696;2023-07-20T11:16:33;1.40;;;1.30;;
7316;SDS011;3699;51.462;6.696;2023-07-20T11:19:01;1.10;;;1.10;;
7316;SDS011;3699;51.462;6.696;2023-07-20T11:21:29;1.20;;;1.20;;
7316;SDS011;3699;51.462;6.696;2023-07-20T11:24:02;2.17;;;1.23;;
7316;SDS011;3699;51.462;6.696;2023-07-20T11:26:29;1.50;;;1.40;;
7316;SDS011;3699;51.462;6.696;2023-07-20T11:28:58;1.57;;;1.47;;
7316;SDS011;3699;51.462;6.696;2023-07-20T11:31:25;1.10;;;1.10;;
7316;SDS011;3699;51.462;6.696;2023-07-20T11:33:52;1.40;;;1.30;;
7316;SDS011;3699;51.462;6.696;2023-07-20T11:36:19;1.60;;;1.50;;
7316;SDS011;3699;51.462;6.696;2023-07-20T11:38:46;1.40;;;1.20;;
7316;SDS011;3699;51.462;6.696;2023-07-20T11:41:13;1.30;;;1.20;;
7316;SDS011;3699;51.462;6.696;2023-07-20T11:43:40;1.53;;;1.40;;
7316;SDS011;3699;51.462;6.696;2023-07-20T11:46:09;1.83;;;1.40;;
7316;SDS011;3699;51.462;6.696;2023-07-20T11:48:36;1.40;;;1.30;;
7316;SDS011;3699;51.462;6.696;2023-07-20T11:51:04;1.60;;;1.50;;
7316;SDS011;3699;51.462;6.696;2023-07-20T11:53:31;2.30;;;1.30;;
7316;SDS011;3699;51.462;6.696;2023-07-20T11:55:59;1.97;;;1.40;;
7316;SDS011;3699;51.462;6.696;2023-07-20T11:58:27;1.40;;;1.30;;
7316;SDS011;3699;51.462;6.696;2023-07-20T12:00:54;2.47;;;1.57;;
7316;SDS011;3699;51.462;6.696;2023-07-20T12:03:23;1.30;;;1.20;;
7316;SDS011;3699;51.462;6.696;2023-07-20T12:05:50;1.90;;;1.30;;
7316;SDS011;3699;51.462;6.696;2023-07-20T12:08:17;1.10;;;1.10;;
7316;SDS011;3699;51.462;6.696;2023-07-20T12:10:43;1.40;;;1.30;;
7316;SDS011;3699;51.462;6.696;2023-07-20T12:13:11;1.40;;;1.30;;
7316;SDS011;3699;51.462;6.696;2023-07-20T12:15:38;3.23;;;1.27;;
7316;SDS011;3699;51.462;6.696;2023-07-20T12:18:05;1.87;;;1.60;;
7316;SDS011;3699;51.462;6.696;2023-07-20T12:20:34;1.20;;;1.20;;
7316;SDS011;3699;51.462;6.696;2023-07-20T12:23:02;1.37;;;1.37;;
7316;SDS011;3699;51.462;6.696;2023-07-20T12:25:36;1.60;;;1.50;;
7316;SDS011;3699;51.462;6.696;2023-07-20T12:28:04;1.30;;;1.30;;
7316;SDS011;3699;51.462;6.696;2023-07-20T12:30:31;1.30;;;1.30;;
7316;SDS011;3699;51.462;6.696;2023-07-20T12:32:58;1.40;;;1.30;;
7316;SDS011;3699;51.462;6.696;2023-07-20T12:35:25;1.30;;;1.30;;
7316;SDS011;3699;51.462;6.696;2023-07-20T12:37:53;1.40;;;1.30;;
7316;SDS011;3699;51.462;6.696;2023-07-20T12:40:20;1.63;;;1.53;;
7316;SDS011;3699;51.462;6.696;2023-07-20T12:42:47;2.57;;;1.20;;
7316;SDS011;3699;51.462;6.696;2023-07-20T12:45:14;1.13;;;1.13;;
7316;SDS011;3699;51.462;6.696;2023-07-20T12:47:41;1.57;;;1.47;;
7316;SDS011;3699;51.462;6.696;2023-07-20T12:50:08;2.10;;;1.40;;
7316;SDS011;3699;51.462;6.696;2023-07-20T12:52:35;1.40;;;1.40;;
7316;SDS011;3699;51.462;6.696;2023-07-20T12:55:05;1.97;;;1.50;;
7316;SDS011;3699;51.462;6.696;2023-07-20T12:57:33;2.50;;;1.10;;
7316;SDS011;3699;51.462;6.696;2023-07-20T13:00:00;1.20;;;1.20;;
7316;SDS011;3699;51.462;6.696;2023-07-20T13:02:26;1.83;;;1.40;;
7316;SDS011;3699;51.462;6.696;2023-07-20T13:04:53;1.60;;;1.50;;
7316;SDS011;3699;51.462;6.696;2023-07-20T13:07:28;1.47;;;1.40;;
7316;SDS011;3699;51.462;6.696;2023-07-20T13:09:56;1.30;;;1.30;;
7316;SDS011;3699;51.462;6.696;2023-07-20T13:12:26;1.30;;;1.20;;
7316;SDS011;3699;51.462;6.696;2023-07-20T13:14:54;1.43;;;1.20;;
7316;SDS011;3699;51.462;6.696;2023-07-20T13:17:21;4.83;;;1.30;;
7316;SDS011;3699;51.462;6.696;2023-07-20T13:19:48;1.20;;;1.20;;
7316;SDS011;3699;51.462;6.696;2023-07-20T13:22:15;1.10;;;1.10;;
7316;SDS011;3699;51.462;6.696;2023-07-20T13:24:44;1.20;;;1.20;;
7316;SDS011;3699;51.462;6.696;2023-07-20T13:27:11;2.33;;;1.50;;
7316;SDS011;3699;51.462;6.696;2023-07-20T13:29:39;1.37;;;1.27;;
7316;SDS011;3699;51.462;6.696;2023-07-20T13:32:07;1.50;;;1.40;;
7316;SDS011;3699;51.462;6.696;2023-07-20T13:34:34;1.30;;;1.30;;
7316;SDS011;3699;51.462;6.696;2023-07-20T13:37:01;1.20;;;1.20;;
7316;SDS011;3699;51.462;6.696;2023-07-20T13:39:28;4.70;;;1.70;;
7316;SDS011;3699;51.462;6.696;2023-07-20T13:41:55;1.30;;;1.20;;
7316;SDS011;3699;51.462;6.696;2023-07-20T13:44:22;2.00;;;1.50;;
7316;SDS011;3699;51.462;6.696;2023-07-20T13:46:50;2.97;;;1.70;;
7316;SDS011;3699;51.462;6.696;2023-07-20T13:49:17;1.50;;;1.40;;
7316;SDS011;3699;51.462;6.696;2023-07-20T13:51:43;1.57;;;1.40;;
7316;SDS011;3699;51.462;6.696;2023-07-20T13:54:10;1.30;;;1.20;;
7316;SDS011;3699;51.462;6.696;2023-07-20T13:56:38;1.30;;;1.30;;
7316;SDS011;3699;51.462;6.696;2023-07-20T13:59:04;1.50;;;1.40;;
7316;SDS011;3699;51.462;6.696;2023-07-20T14:01:31;1.23;;;1.20;;
7316;SDS011;3699;51.462;6.696;2023-07-20T14:04:00;1.60;;;1.50;;
7316;SDS011;3699;51.462;6.696;2023-07-20T14:06:29;1.40;;;1.30;;
7316;SDS011;3699;51.462;6.696;2023-07-20T14:08:57;1.30;;;1.30;;
7316;SDS011;3699;51.462;6.696;2023-07-20T14:11:25;1.50;;;1.40;;
7316;SDS011;3699;51.462;6.696;2023-07-20T14:13:52;1.50;;;1.40;;
7316;SDS011;3699;51.462;6.696;2023-07-20T14:16:19;1.37;;;1.30;;
7316;SDS011;3699;51.462;6.696;2023-07-20T14:18:47;1.40;;;1.30;;
7316;SDS011;3699;51.462;6.696;2023-07-20T14:21:15;1.37;;;1.30;;
7316;SDS011;3699;51.462;6.696;2023-07-20T14:23:44;2.20;;;1.30;;
7316;SDS011;3699;51.462;6.696;2023-07-20T14:26:11;2.77;;;1.30;;
7316;SDS011;3699;51.462;6.696;2023-07-20T14:28:38;1.50;;;1.40;;
7316;SDS011;3699;51.462;6.696;2023-07-20T14:31:04;1.17;;;1.17;;
7316;SDS011;3699;51.462;6.696;2023-07-20T14:33:31;1.00;;;1.00;;
7316;SDS011;3699;51.462;6.696;2023-07-20T14:35:58;1.40;;;1.30;;
7316;SDS011;3699;51.462;6.696;2023-07-20T14:38:27;1.30;;;1.20;;
7316;SDS011;3699;51.462;6.696;2023-07-20T14:40:54;1.60;;;1.50;;
7316;SDS011;3699;51.462;6.696;2023-07-20T14:43:21;2.57;;;1.50;;
7316;SDS011;3699;51.462;6.696;2023-07-20T14:45:48;1.33;;;1.30;;
7316;SDS011;3699;51.462;6.696;2023-07-20T14:48:14;1.50;;;1.40;;
7316;SDS011;3699;51.462;6.696;2023-07-20T14:50:41;1.80;;;1.47;;
7316;SDS011;3699;51.462;6.696;2023-07-20T14:53:10;3.53;;;1.70;;
7316;SDS011;3699;51.462;6.696;2023-07-20T14:55:39;2.47;;;1.60;;
7316;SDS011;3699;51.462;6.696;2023-07-20T14:58:06;3.17;;;1.40;;
7316;SDS011;3699;51.462;6.696;2023-07-20T15:00:33;1.60;;;1.50;;
7316;SDS011;3699;51.462;6.696;2023-07-20T15:03:00;1.63;;;1.37;;
7316;SDS011;3699;51.462;6.696;2023-07-20T15:05:27;1.40;;;1.30;;
7316;SDS011;3699;51.462;6.696;2023-07-20T15:07:53;2.10;;;1.30;;
7316;SDS011;3699;51.462;6.696;2023-07-20T15:10:20;2.30;;;1.53;;
7316;SDS011;3699;51.462;6.696;2023-07-20T15:12:49;2.97;;;1.63;;
7316;SDS011;3699;51.462;6.696;2023-07-20T15:15:16;3.27;;;1.37;;
7316;SDS011;3699;51.462;6.696;2023-07-20T15:17:43;1.60;;;1.50;;
7316;SDS011;3699;51.462;6.696;2023-07-20T15:20:11;1.57;;;1.47;;
7316;SDS011;3699;51.462;6.696;2023-07-20T15:22:39;2.10;;;1.50;;
7316;SDS011;3699;51.462;6.696;2023-07-20T15:25:07;1.87;;;1.57;;
7316;SDS011;3699;51.462;6.696;2023-07-20T15:27:36;2.27;;;1.40;;
7316;SDS011;3699;51.462;6.696;2023-07-20T15:30:06;1.53;;;1.43;;
7316;SDS011;3699;51.462;6.696;2023-07-20T15:32:33;1.93;;;1.70;;
7316;SDS011;3699;51.462;6.696;2023-07-20T15:35:00;2.20;;;1.97;;
7316;SDS011;3699;51.462;6.696;2023-07-20T15:37:29;2.00;;;1.40;;
7316;SDS011;3699;51.462;6.696;2023-07-20T15:39:56;1.67;;;1.40;;
7316;SDS011;3699;51.462;6.696;2023-07-20T15:42:23;2.30;;;1.43;;
7316;SDS011;3699;51.462;6.696;2023-07-20T15:44:50;1.53;;;1.43;;
7316;SDS011;3699;51.462;6.696;2023-07-20T15:47:18;1.47;;;1.37;;
7316;SDS011;3699;51.462;6.696;2023-07-20T15:49:45;1.37;;;1.33;;
7316;SDS011;3699;51.462;6.696;2023-07-20T15:52:13;1.37;;;1.37;;
7316;SDS011;3699;51.462;6.696;2023-07-20T15:54:40;1.43;;;1.33;;
7316;SDS011;3699;51.462;6.696;2023-07-20T15:57:07;1.70;;;1.47;;
7316;SDS011;3699;51.462;6.696;2023-07-20T15:59:34;2.40;;;2.20;;
7316;SDS011;3699;51.462;6.696;2023-07-20T16:02:01;2.10;;;1.90;;
7316;SDS011;3699;51.462;6.696;2023-07-20T16:04:31;1.63;;;1.53;;
7316;SDS011;3699;51.462;6.696;2023-07-20T16:06:57;2.10;;;1.90;;
7316;SDS011;3699;51.462;6.696;2023-07-20T16:09:24;1.33;;;1.33;;
7316;SDS011;3699;51.462;6.696;2023-07-20T16:11:51;1.57;;;1.47;;
7316;SDS011;3699;51.462;6.696;2023-07-20T16:14:18;2.67;;;1.90;;
7316;SDS011;3699;51.462;6.696;2023-07-20T16:16:45;3.50;;;1.60;;
7316;SDS011;3699;51.462;6.696;2023-07-20T16:19:12;1.53;;;1.43;;
7316;SDS011;3699;51.462;6.696;2023-07-20T16:21:40;1.70;;;1.60;;
7316;SDS011;3699;51.462;6.696;2023-07-20T16:24:07;1.67;;;1.57;;
7316;SDS011;3699;51.462;6.696;2023-07-20T16:26:34;1.50;;;1.40;;
7316;SDS011;3699;51.462;6.696;2023-07-20T16:29:00;1.60;;;1.50;;
7316;SDS011;3699;51.462;6.696;2023-07-20T16:31:27;1.80;;;1.70;;
7316;SDS011;3699;51.462;6.696;2023-07-20T16:33:54;2.20;;;1.63;;
7316;SDS011;3699;51.462;6.696;2023-07-20T16:36:21;1.67;;;1.57;;
7316;SDS011;3699;51.462;6.696;2023-07-20T16:38:49;1.60;;;1.50;;
7316;SDS011;3699;51.462;6.696;2023-07-20T16:41:15;3.23;;;1.73;;
7316;SDS011;3699;51.462;6.696;2023-07-20T16:43:42;1.40;;;1.40;;
7316;SDS011;3699;51.462;6.696;2023-07-20T16:46:09;6.43;;;1.53;;
7316;SDS011;3699;51.462;6.696;2023-07-20T16:48:37;1.97;;;1.80;;
7316;SDS011;3699;51.462;6.696;2023-07-20T16:51:04;1.50;;;1.40;;
7316;SDS011;3699;51.462;6.696;2023-07-20T16:53:31;1.70;;;1.60;;
7316;SDS011;3699;51.462;6.696;2023-07-20T16:55:59;1.73;;;1.63;;
7316;SDS011;3699;51.462;6.696;2023-07-20T16:58:26;1.70;;;1.60;;
7316;SDS011;3699;51.462;6.696;2023-07-20T17:00:58;1.90;;;1.80;;
7316;SDS011;3699;51.462;6.696;2023-07-20T17:03:26;9.67;;;2.43;;
7316;SDS011;3699;51.462;6.696;2023-07-20T17:05:54;2.00;;;1.90;;
7316;SDS011;3699;51.462;6.696;2023-07-20T17:08:21;1.70;;;1.60;;
7316;SDS011;3699;51.462;6.696;2023-07-20T17:10:48;1.77;;;1.57;;
7316;SDS011;3699;51.462;6.696;2023-07-20T17:13:16;2.57;;;1.70;;
7316;SDS011;3699;51.462;6.696;2023-07-20T17:15:45;1.90;;;1.80;;
7316;SDS011;3699;51.462;6.696;2023-07-20T17:18:12;1.77;;;1.67;;
7316;SDS011;3699;51.462;6.696;2023-07-20T17:20:39;2.10;;;1.90;;
7316;SDS011;3699;51.462;6.696;2023-07-20T17:23:06;1.87;;;1.77;;
7316;SDS011;3699;51.462;6.696;2023-07-20T17:25:32;3.47;;;1.90;;
7316;SDS011;3699;51.462;6.696;2023-07-20T17:27:59;2.03;;;1.93;;
7316;SDS011;3699;51.462;6.696;2023-07-20T17:30:27;2.10;;;2.00;;
7316;SDS011;3699;51.462;6.696;2023-07-20T17:32:54;3.63;;;1.77;;
7316;SDS011;3699;51.462;6.696;2023-07-20T17:35:21;3.57;;;1.80;;
7316;SDS011;3699;51.462;6.696;2023-07-20T17:37:47;1.80;;;1.70;;
7316;SDS011;3699;51.462;6.696;2023-07-20T17:40:14;2.03;;;1.90;;
7316;SDS011;3699;51.462;6.696;2023-07-20T17:42:43;4.87;;;2.00;;
7316;SDS011;3699;51.462;6.696;2023-07-20T17:45:10;2.77;;;2.10;;
7316;SDS011;3699;51.462;6.696;2023-07-20T17:47:38;1.90;;;1.80;;
7316;SDS011;3699;51.462;6.696;2023-07-20T17:50:05;2.10;;;2.00;;
7316;SDS011;3699;51.462;6.696;2023-07-20T17:52:35;3.40;;;2.10;;
7316;SDS011;3699;51.462;6.696;2023-07-20T17:55:02;2.00;;;1.90;;
7316;SDS011;3699;51.462;6.696;2023-07-20T17:57:29;2.10;;;2.00;;
7316;SDS011;3699;51.462;6.696;2023-07-20T17:59:56;3.70;;;1.97;;
7316;SDS011;3699;51.462;6.696;2023-07-20T18:02:23;2.57;;;1.93;;
7316;SDS011;3699;51.462;6.696;2023-07-20T18:04:53;2.47;;;2.23;;
7316;SDS011;3699;51.462;6.696;2023-07-20T18:07:20;2.17;;;1.97;;
7316;SDS011;3699;51.462;6.696;2023-07-20T18:09:47;2.47;;;2.00;;
7316;SDS011;3699;51.462;6.696;2023-07-20T18:12:13;2.00;;;1.90;;
7316;SDS011;3699;51.462;6.696;2023-07-20T18:14:40;2.00;;;1.90;;
7316;SDS011;3699;51.462;6.696;2023-07-20T18:17:07;2.07;;;1.87;;
7316;SDS011;3699;51.462;6.696;2023-07-20T18:19:33;1.90;;;1.80;;
7316;SDS011;3699;51.462;6.696;2023-07-20T18:22:01;2.53;;;1.90;;
7316;SDS011;3699;51.462;6.696;2023-07-20T18:24:29;1.90;;;1.80;;
7316;SDS011;3699;51.462;6.696;2023-07-20T18:26:55;2.00;;;1.90;;
7316;SDS011;3699;51.462;6.696;2023-07-20T18:29:22;2.40;;;2.20;;
7316;SDS011;3699;51.462;6.696;2023-07-20T18:31:49;2.27;;;2.07;;
7316;SDS011;3699;51.462;6.696;2023-07-20T18:34:16;4.27;;;2.00;;
7316;SDS011;3699;51.462;6.696;2023-07-20T18:36:43;2.80;;;2.00;;
7316;SDS011;3699;51.462;6.696;2023-07-20T18:39:11;2.53;;;1.90;;
7316;SDS011;3699;51.462;6.696;2023-07-20T18:41:38;2.10;;;1.90;;
7316;SDS011;3699;51.462;6.696;2023-07-20T18:44:04;2.33;;;2.20;;
7316;SDS011;3699;51.462;6.696;2023-07-20T18:46:31;2.13;;;2.03;;
7316;SDS011;3699;51.462;6.696;2023-07-20T18:48:58;2.27;;;2.07;;
7316;SDS011;3699;51.462;6.696;2023-07-20T18:51:25;2.20;;;2.10;;
7316;SDS011;3699;51.462;6.696;2023-07-20T19:00:03;2.10;;;2.00;;
7316;SDS011;3699;51.462;6.696;2023-07-20T19:02:32;3.27;;;2.07;;
7316;SDS011;3699;51.462;6.696;2023-07-20T19:04:58;2.33;;;2.20;;
7316;SDS011;3699;51.462;6.696;2023-07-20T19:07:25;3.83;;;2.57;;
7316;SDS011;3699;51.462;6.696;2023-07-20T19:09:52;2.20;;;2.10;;
7316;SDS011;3699;51.462;6.696;2023-07-20T19:12:18;1.97;;;1.87;;
7316;SDS011;3699;51.462;6.696;2023-07-20T19:14:47;6.13;;;1.80;;
7316;SDS011;3699;51.462;6.696;2023-07-20T19:17:14;2.20;;;2.00;;
7316;SDS011;3699;51.462;6.696;2023-07-20T19:19:41;1.97;;;1.87;;
7316;SDS011;3699;51.462;6.696;2023-07-20T19:22:08;2.57;;;2.17;;
7316;SDS011;3699;51.462;6.696;2023-07-20T19:24:34;2.00;;;1.90;;
7316;SDS011;3699;51.462;6.696;2023-07-20T19:27:01;1.80;;;1.70;;
7316;SDS011;3699;51.462;6.696;2023-07-20T19:29:29;2.20;;;2.00;;
7316;SDS011;3699;51.462;6.696;2023-07-20T19:31:57;4.13;;;2.20;;
7316;SDS011;3699;51.462;6.696;2023-07-20T19:34:24;2.40;;;2.20;;
7316;SDS011;3699;51.462;6.696;2023-07-20T19:36:50;3.30;;;2.20;;
7316;SDS011;3699;51.462;6.696;2023-07-20T19:39:17;2.20;;;2.00;;
7316;SDS011;3699;51.462;6.696;2023-07-20T19:41:44;2.70;;;1.80;;
7316;SDS011;3699;51.462;6.696;2023-07-20T19:44:11;4.17;;;2.60;;
7316;SDS011;3699;51.462;6.696;2023-07-20T19:46:37;2.30;;;2.20;;
7316;SDS011;3699;51.462;6.696;2023-07-20T19:49:05;2.23;;;2.03;;
7316;SDS011;3699;51.462;6.696;2023-07-20T19:51:32;2.20;;;2.00;;
7316;SDS011;3699;51.462;6.696;2023-07-20T19:54:01;4.40;;;2.03;;
7316;SDS011;3699;51.462;6.696;2023-07-20T19:56:27;1.93;;;1.83;;
7316;SDS011;3699;51.462;6.696;2023-07-20T19:58:54;4.23;;;1.90;;
7316;SDS011;3699;51.462;6.696;2023-07-20T20:01:21;2.30;;;2.10;;
7316;SDS011;3699;51.462;6.696;2023-07-20T20:03:48;2.40;;;2.00;;
7316;SDS011;3699;51.462;6.696;2023-07-20T20:06:16;2.37;;;2.17;;
7316;SDS011;3699;51.462;6.696;2023-07-20T20:08:43;2.20;;;2.10;;
7316;SDS011;3699;51.462;6.696;2023-07-20T20:11:09;2.63;;;2.40;;
7316;SDS011;3699;51.462;6.696;2023-07-20T20:13:36;2.43;;;2.20;;
7316;SDS011;3699;51.462;6.696;2023-07-20T20:16:05;2.17;;;2.07;;
7316;SDS011;3699;51.462;6.696;2023-07-20T20:18:33;4.23;;;2.37;;
7316;SDS011;3699;51.462;6.696;2023-07-20T20:21:01;2.70;;;2.50;;
7316;SDS011;3699;51.462;6.696;2023-07-20T20:23:31;2.70;;;2.50;;
7316;SDS011;3699;51.462;6.696;2023-07-20T20:25:58;6.37;;;2.90;;
7316;SDS011;3699;51.462;6.696;2023-07-20T20:28:25;3.00;;;2.80;;
7316;SDS011;3699;51.462;6.696;2023-07-20T20:30:53;2.90;;;2.70;;
7316;SDS011;3699;51.462;6.696;2023-07-20T20:33:20;3.73;;;3.17;;
7316;SDS011;3699;51.462;6.696;2023-07-20T20:35:47;2.67;;;2.47;;
7316;SDS011;3699;51.462;6.696;2023-07-20T20:38:16;3.03;;;2.70;;
7316;SDS011;3699;51.462;6.696;2023-07-20T20:40:45;2.60;;;2.37;;
7316;SDS011;3699;51.462;6.696;2023-07-20T20:43:12;3.10;;;2.90;;
7316;SDS011;3699;51.462;6.696;2023-07-20T20:45:39;2.50;;;2.30;;
7316;SDS011;3699;51.462;6.696;2023-07-20T20:48:07;3.80;;;3.13;;
7316;SDS011;3699;51.462;6.696;2023-07-20T20:50:34;4.70;;;3.00;;
7316;SDS011;3699;51.462;6.696;2023-07-20T20:53:02;2.77;;;2.57;;
7316;SDS011;3699;51.462;6.696;2023-07-20T20:55:29;3.13;;;2.93;;
7316;SDS011;3699;51.462;6.696;2023-07-20T20:57:57;3.40;;;3.10;;
7316;SDS011;3699;51.462;6.696;2023-07-20T21:00:24;3.37;;;3.17;;
7316;SDS011;3699;51.462;6.696;2023-07-20T21:02:51;4.13;;;2.97;;
7316;SDS011;3699;51.462;6.696;2023-07-20T21:05:18;3.70;;;2.97;;
7316;SDS011;3699;51.462;6.696;2023-07-20T21:07:45;4.37;;;3.37;;
7316;SDS011;3699;51.462;6.696;2023-07-20T21:10:12;3.53;;;3.23;;
7316;SDS011;3699;51.462;6.696;2023-07-20T21:12:38;2.93;;;2.73;;
7316;SDS011;3699;51.462;6.696;2023-07-20T21:15:07;4.13;;;3.60;;
7316;SDS011;3699;51.462;6.696;2023-07-20T21:17:35;3.30;;;3.00;;
7316;SDS011;3699;51.462;6.696;2023-07-20T21:20:02;3.17;;;2.97;;
7316;SDS011;3699;51.462;6.696;2023-07-20T21:22:31;2.87;;;2.67;;
7316;SDS011;3699;51.462;6.696;2023-07-20T21:24:57;3.53;;;3.23;;
7316;SDS011;3699;51.462;6.696;2023-07-20T21:27:24;3.63;;;3.33;;
7316;SDS011;3699;51.462;6.696;2023-07-20T21:29:51;5.30;;;3.57;;
7316;SDS011;3699;51.462;6.696;2023-07-20T21:32:20;4.00;;;3.70;;
7316;SDS011;3699;51.462;6.696;2023-07-20T21:34:46;3.87;;;3.50;;
7316;SDS011;3699;51.462;6.696;2023-07-20T21:37:13;7.77;;;3.83;;
7316;SDS011;3699;51.462;6.696;2023-07-20T21:39:40;4.27;;;3.17;;
7316;SDS011;3699;51.462;6.696;2023-07-20T21:42:06;3.90;;;3.30;;
7316;SDS011;3699;51.462;6.696;2023-07-20T21:44:33;3.73;;;3.40;;
7316;SDS011;3699;51.462;6.696;2023-07-20T21:47:00;3.47;;;3.17;;
7316;SDS011;3699;51.462;6.696;2023-07-20T21:49:28;4.63;;;3.30;;
7316;SDS011;3699;51.462;6.696;2023-07-20T21:51:55;3.73;;;3.43;;
7316;SDS011;3699;51.462;6.696;2023-07-20T21:54:21;3.80;;;3.33;;
7316;SDS011;3699;51.462;6.696;2023-07-20T21:56:48;3.63;;;3.33;;
7316;SDS011;3699;51.462;6.696;2023-07-20T21:59:15;4.10;;;3.70;;
7316;SDS011;3699;51.462;6.696;2023-07-20T22:01:42;3.63;;;3.30;;
7316;SDS011;3699;51.462;6.696;2023-07-20T22:04:09;4.77;;;3.83;;
7316;SDS011;3699;51.462;6.696;2023-07-20T22:06:38;4.20;;;3.73;;
7316;SDS011;3699;51.462;6.696;2023-07-20T22:09:11;4.20;;;3.80;;
7316;SDS011;3699;51.462;6.696;2023-07-20T22:11:38;3.47;;;3.17;;
7316;SDS011;3699;51.462;6.696;2023-07-20T22:14:05;6.10;;;3.70;;
7316;SDS011;3699;51.462;6.696;2023-07-20T22:16:32;4.20;;;3.60;;
7316;SDS011;3699;51.462;6.696;2023-07-20T22:18:59;5.27;;;4.00;;
7316;SDS011;3699;51.462;6.696;2023-07-20T22:21:26;5.23;;;3.77;;
7316;SDS011;3699;51.462;6.696;2023-07-20T22:23:55;5.10;;;3.70;;
7316;SDS011;3699;51.462;6.696;2023-07-20T22:26:21;5.40;;;3.87;;
7316;SDS011;3699;51.462;6.696;2023-07-20T22:28:49;3.80;;;3.50;;
7316;SDS011;3699;51.462;6.696;2023-07-20T22:31:15;6.73;;;3.60;;
7316;SDS011;3699;51.462;6.696;2023-07-20T22:33:42;3.90;;;3.60;;
7316;SDS011;3699;51.462;6.696;2023-07-20T22:36:09;6.23;;;4.17;;
7316;SDS011;3699;51.462;6.696;2023-07-20T22:38:36;4.27;;;3.70;;
7316;SDS011;3699;51.462;6.696;2023-07-20T22:41:04;6.70;;;4.10;;
7316;SDS011;3699;51.462;6.696;2023-07-20T22:43:30;4.10;;;3.70;;
7316;SDS011;3699;51.462;6.696;2023-07-20T22:45:57;4.17;;;3.77;;
7316;SDS011;3699;51.462;6.696;2023-07-20T22:48:24;4.30;;;3.90;;
7316;SDS011;3699;51.462;6.696;2023-07-20T22:50:52;7.17;;;3.97;;
7316;SDS011;3699;51.462;6.696;2023-07-20T22:53:22;4.97;;;4.47;;
7316;SDS011;3699;51.462;6.696;2023-07-20T22:55:49;4.20;;;3.80;;
7316;SDS011;3699;51.462;6.696;2023-07-20T22:58:17;4.00;;;3.70;;
7316;SDS011;3699;51.462;6.696;2023-07-20T23:00:44;4.23;;;3.83;;
7316;SDS011;3699;51.462;6.696;2023-07-20T23:03:11;5.53;;;3.97;;
7316;SDS011;3699;51.462;6.696;2023-07-20T23:05:38;4.50;;;4.10;;
7316;SDS011;3699;51.462;6.696;2023-07-20T23:08:05;5.33;;;4.33;;
7316;SDS011;3699;51.462;6.696;2023-07-20T23:10:31;4.47;;;4.07;;
7316;SDS011;3699;51.462;6.696;2023-07-20T23:12:58;5.30;;;4.47;;
7316;SDS011;3699;51.462;6.696;2023-07-20T23:15:27;4.97;;;4.23;;
7316;SDS011;3699;51.462;6.696;2023-07-20T23:17:54;7.20;;;4.63;;
7316;SDS011;3699;51.462;6.696;2023-07-20T23:20:20;5.40;;;4.40;;
7316;SDS011;3699;51.462;6.696;2023-07-20T23:22:48;5.47;;;4.97;;
7316;SDS011;3699;51.462;6.696;2023-07-20T23:25:16;5.60;;;5.10;;
7316;SDS011;3699;51.462;6.696;2023-07-20T23:27:44;5.53;;;4.90;;
7316;SDS011;3699;51.462;6.696;2023-07-20T23:30:11;8.00;;;5.37;;
7316;SDS011;3699;51.462;6.696;2023-07-20T23:32:40;8.90;;;4.53;;
7316;SDS011;3699;51.462;6.696;2023-07-20T23:35:07;5.83;;;5.23;;
7316;SDS011;3699;51.462;6.696;2023-07-20T23:37:35;5.63;;;5.07;;
7316;SDS011;3699;51.462;6.696;2023-07-20T23:40:04;5.37;;;4.87;;
7316;SDS011;3699;51.462;6.696;2023-07-20T23:42:36;6.13;;;5.03;;
7316;SDS011;3699;51.462;6.696;2023-07-20T23:45:04;5.77;;;5.13;;
7316;SDS011;3699;51.462;6.696;2023-07-20T23:47:31;5.70;;;5.20;;
7316;SDS011;3699;51.462;6.696;2023-07-20T23:49:59;6.23;;;5.63;;
7316;SDS011;3699;51.462;6.696;2023-07-20T23:52:26;6.13;;;5.50;;
7316;SDS011;3699;51.462;6.696;2023-07-20T23:54:53;6.93;;;6.23;;
7316;SDS011;3699;51.462;6.696;2023-07-20T23:57:20;5.90;;;5.30;;
7316;SDS011;3699;51.462;6.696;2023-07-20T23:59:47;5.67;;;5.07;;
